CheckWX is a tool to help pilots better visualize weather data.  It is not intended as a substitute for an official pre-flight weather briefing.

23:13:17 UTC

LJPZ METAR
Portoroz Airport
Portoroz, Slovenia
Current

43 mins ago

LJPZ 192230Z AUTO 05007KT 020V090 9999 NSC 09/M03 Q1027
Observed
Mar-19 @ 22:30 UTC
Wind
  • 050° at 7 KTS
Visibility
10,000+ meters
Flight Rules
VFR
Cloud Levels
  • Clear skies
Temperature
C / 48°F
Dewpoint
-3°C / 27°F
Humidity
43%
Altimeter
30.32" Hg
Pressure
1026.92 hPa
Previous

1 hour ago

LJPZ 192200Z AUTO 06007KT 010V110 9999 NSC 09/M02 Q1026
Observed
Mar-19 @ 22:00 UTC
Wind
  • 060° at 7 KTS
Visibility
10,000+ meters
Flight Rules
VFR
Cloud Levels
  • Clear skies
Temperature
C / 48°F
Dewpoint
-2°C / 28°F
Humidity
46%
Altimeter
30.3" Hg
Pressure
1025.92 hPa
Previous

2 hours ago

LJPZ 192130Z AUTO 05006KT 010V100 9999 NSC 09/M02 Q1026
Observed
Mar-19 @ 21:30 UTC
Wind
  • 050° at 6 KTS
Visibility
10,000+ meters
Flight Rules
VFR
Cloud Levels
  • Clear skies
Temperature
C / 48°F
Dewpoint
-2°C / 28°F
Humidity
46%
Altimeter
30.3" Hg
Pressure
1025.92 hPa